Time,TemperatureF,DewpointF,PressureIn,WindDirection,WindDirectionDegrees,WindSpeedMPH,WindSpeedGustMPH,Humidity,HourlyPrecipIn,Conditions,Clouds,dailyrainin,SoftwareType,DateUTC
2013-02-11 00:14:00,32.6,30.0,30.09,South,186,1.0,3.0,91,0.00,,,0.00,weatherlink.com 1.10,2013-02-11 08:14:00,
2013-02-11 00:29:00,33.0,31.0,30.10,South,186,0.0,1.0,91,0.00,,,0.00,weatherlink.com 1.10,2013-02-11 08:29:00,
2013-02-11 00:44:00,32.7,30.0,30.10,South,186,0.0,1.0,91,0.00,,,0.00,weatherlink.com 1.10,2013-02-11 08:44:00,
2013-02-11 00:59:00,32.6,30.0,30.09,South,186,0.0,1.0,91,0.00,,,0.00,weatherlink.com 1.10,2013-02-11 08:59:00,
2013-02-11 01:14:00,31.8,30.0,30.10,South,186,0.0,0.0,91,0.00,,,0.00,weatherlink.com 1.10,2013-02-11 09:14:00,
2013-02-11 01:29:00,31.9,30.0,30.10,South,186,0.0,0.0,91,0.00,,,0.00,weatherlink.com 1.10,2013-02-11 09:29:00,
2013-02-11 01:44:00,30.8,29.0,30.09,South,187,0.0,2.0,91,0.00,,,0.00,weatherlink.com 1.10,2013-02-11 09:44:00,
2013-02-11 01:59:00,30.7,28.0,30.10,South,187,0.0,1.0,91,0.00,,,0.00,weatherlink.com 1.10,2013-02-11 09:59:00,
2013-02-11 02:14:00,30.6,29.0,30.10,South,187,0.0,0.0,92,0.00,,,0.00,weatherlink.com 1.10,2013-02-11 10:14:00,
2013-02-11 02:29:00,31.4,30.0,30.11,South,187,0.0,2.0,93,0.00,,,0.00,weatherlink.com 1.10,2013-02-11 10:29:00,
2013-02-11 02:44:00,31.1,29.0,30.10,South,187,0.0,2.0,92,0.00,,,0.00,weatherlink.com 1.10,2013-02-11 10:44:00,
2013-02-11 02:59:00,30.6,29.0,30.11,South,188,1.0,3.0,92,0.00,,,0.00,weatherlink.com 1.10,2013-02-11 10:59:00,
2013-02-11 03:14:00,31.0,29.0,30.11,SSE,157,0.0,2.0,92,0.00,,,0.00,weatherlink.com 1.10,2013-02-11 11:14:00,
2013-02-11 03:29:00,30.4,28.0,30.11,SSE,158,1.0,1.0,92,0.00,,,0.00,weatherlink.com 1.10,2013-02-11 11:29:00,
2013-02-11 03:45:00,29.8,28.0,30.11,NNW,329,1.0,6.0,92,0.00,,,0.00,weatherlink.com 1.10,2013-02-11 11:45:00,
2013-02-11 04:00:00,29.6,28.0,30.11,NNW,329,1.0,2.0,92,0.00,,,0.00,weatherlink.com 1.10,2013-02-11 12:00:00,
2013-02-11 04:15:00,29.4,27.0,30.11,North,349,0.0,2.0,92,0.00,,,0.00,weatherlink.com 1.10,2013-02-11 12:15:00,
2013-02-11 04:30:00,29.2,27.0,30.11,North,349,0.0,2.0,92,0.00,,,0.00,weatherlink.com 1.10,2013-02-11 12:30:00,
2013-02-11 04:45:00,29.7,28.0,30.12,North,349,0.0,2.0,93,0.00,,,0.00,weatherlink.com 1.10,2013-02-11 12:45:00,
2013-02-11 05:00:00,29.4,27.0,30.12,North,349,0.0,0.0,92,0.00,,,0.00,weatherlink.com 1.10,2013-02-11 13:00:00,
2013-02-11 05:15:00,29.3,27.0,30.12,WNW,294,0.0,3.0,92,0.00,,,0.00,weatherlink.com 1.10,2013-02-11 13:15:00,
2013-02-11 05:30:00,28.8,27.0,30.12,NE,40,1.0,4.0,92,0.00,,,0.00,weatherlink.com 1.10,2013-02-11 13:30:00,
2013-02-11 05:45:00,29.0,27.0,30.12,NE,40,1.0,2.0,93,0.00,,,0.00,weatherlink.com 1.10,2013-02-11 13:45:00,
2013-02-11 06:00:00,29.0,27.0,30.13,North,355,3.0,3.0,93,0.00,,,0.00,weatherlink.com 1.10,2013-02-11 14:00:00,
2013-02-11 06:15:00,27.9,26.0,30.13,NNW,336,0.0,2.0,92,0.00,,,0.00,weatherlink.com 1.10,2013-02-11 14:15:00,
2013-02-11 06:30:00,29.2,28.0,30.13,SW,233,0.0,3.0,93,0.00,,,0.00,weatherlink.com 1.10,2013-02-11 14:30:00,
2013-02-11 06:45:00,29.3,28.0,30.14,NW,309,1.0,3.0,93,0.00,,,0.00,weatherlink.com 1.10,2013-02-11 14:45:00,
2013-02-11 07:00:00,28.4,26.0,30.14,NW,319,0.0,3.0,92,0.00,,,0.00,weatherlink.com 1.10,2013-02-11 15:00:00,
2013-02-11 07:15:00,28.4,27.0,30.14,NW,319,0.0,1.0,93,0.00,,,0.00,weatherlink.com 1.10,2013-02-11 15:15:00,
2013-02-11 07:30:00,28.7,27.0,30.15,NW,319,0.0,0.0,93,0.00,,,0.00,weatherlink.com 1.10,2013-02-11 15:30:00,
2013-02-11 07:45:00,28.8,27.0,30.16,NW,319,0.0,2.0,93,0.00,,,0.00,weatherlink.com 1.10,2013-02-11 15:45:00,
2013-02-11 08:00:00,31.7,30.0,30.16,NW,319,0.0,1.0,93,0.00,,,0.00,weatherlink.com 1.10,2013-02-11 16:00:00,
2013-02-11 08:15:00,34.3,33.0,30.17,NW,319,0.0,1.0,94,0.00,,,0.00,weatherlink.com 1.10,2013-02-11 16:15:00,
2013-02-11 08:30:00,35.8,34.0,30.18,NW,319,1.0,2.0,93,0.00,,,0.00,weatherlink.com 1.10,2013-02-11 16:30:00,
2013-02-11 08:45:00,39.0,37.0,30.18,NW,321,1.0,3.0,91,0.00,,,0.00,weatherlink.com 1.10,2013-02-11 16:45:00,
2013-02-11 09:00:00,42.7,38.0,30.18,NW,321,1.0,4.0,83,0.00,,,0.00,weatherlink.com 1.10,2013-02-11 17:00:00,
2013-02-11 09:15:00,45.8,39.0,30.18,NW,321,1.0,3.0,77,0.00,,,0.00,weatherlink.com 1.10,2013-02-11 17:15:00,
2013-02-11 09:30:00,48.8,39.0,30.19,NW,325,3.0,3.0,69,0.00,,,0.00,weatherlink.com 1.10,2013-02-11 17:30:00,
2013-02-11 09:45:00,51.2,39.0,30.19,NNW,336,3.0,4.0,64,0.00,,,0.00,weatherlink.com 1.10,2013-02-11 17:45:00,
2013-02-11 10:01:00,53.7,39.0,30.20,NNW,336,1.0,3.0,58,0.00,,,0.00,weatherlink.com 1.10,2013-02-11 18:01:00,
2013-02-11 10:16:00,56.3,39.0,30.19,NNW,329,2.0,4.0,52,0.00,,,0.00,weatherlink.com 1.10,2013-02-11 18:16:00,
2013-02-11 10:31:00,58.5,37.0,30.19,NNW,329,0.0,2.0,45,0.00,,,0.00,weatherlink.com 1.10,2013-02-11 18:31:00,
2013-02-11 10:46:00,60.9,33.0,30.19,ENE,69,1.0,4.0,35,0.00,,,0.00,weatherlink.com 1.10,2013-02-11 18:46:00,
2013-02-11 11:01:00,61.7,31.0,30.19,ENE,71,0.0,4.0,32,0.00,,,0.00,weatherlink.com 1.10,2013-02-11 19:01:00,
2013-02-11 11:16:00,61.7,33.0,30.19,North,9,3.0,4.0,34,0.00,,,0.00,weatherlink.com 1.10,2013-02-11 19:16:00,
2013-02-11 11:31:00,62.2,33.0,30.18,North,5,3.0,6.0,33,0.00,,,0.00,weatherlink.com 1.10,2013-02-11 19:31:00,
2013-02-11 11:46:00,62.2,33.0,30.18,North,5,2.0,6.0,33,0.00,,,0.00,weatherlink.com 1.10,2013-02-11 19:46:00,
2013-02-11 12:16:00,64.0,34.0,30.16,West,279,2.0,5.0,33,0.00,,,0.00,weatherlink.com 1.10,2013-02-11 20:16:00,
2013-02-11 12:31:00,64.5,34.0,30.16,WNW,288,0.0,5.0,32,0.00,,,0.00,weatherlink.com 1.10,2013-02-11 20:31:00,
2013-02-11 12:46:00,65.3,36.0,30.16,ESE,109,3.0,3.0,34,0.00,,,0.00,weatherlink.com 1.10,2013-02-11 20:46:00,
2013-02-11 13:01:00,65.4,35.0,30.15,SSE,157,2.0,5.0,33,0.00,,,0.00,weatherlink.com 1.10,2013-02-11 21:01:00,
2013-02-11 13:16:00,65.7,33.0,30.14,South,184,4.0,5.0,30,0.00,,,0.00,weatherlink.com 1.10,2013-02-11 21:16:00,
2013-02-11 13:31:00,66.1,34.0,30.14,SSE,149,1.0,5.0,31,0.00,,,0.00,weatherlink.com 1.10,2013-02-11 21:31:00,
2013-02-11 13:46:00,66.7,35.0,30.13,South,182,2.0,8.0,31,0.00,,,0.00,weatherlink.com 1.10,2013-02-11 21:46:00,
2013-02-11 14:01:00,66.8,33.0,30.13,WSW,239,2.0,6.0,29,0.00,,,0.00,weatherlink.com 1.10,2013-02-11 22:01:00,
2013-02-11 14:16:00,66.8,34.0,30.13,WSW,254,3.0,5.0,30,0.00,,,0.00,weatherlink.com 1.10,2013-02-11 22:16:00,
2013-02-11 14:31:00,66.6,35.0,30.13,NW,321,1.0,4.0,31,0.00,,,0.00,weatherlink.com 1.10,2013-02-11 22:31:00,
2013-02-11 14:46:00,66.1,33.0,30.13,NNW,331,3.0,6.0,29,0.00,,,0.00,weatherlink.com 1.10,2013-02-11 22:46:00,
2013-02-11 15:01:00,64.9,33.0,30.13,NW,318,5.0,9.0,31,0.00,,,0.00,weatherlink.com 1.10,2013-02-11 23:01:00,
2013-02-11 15:16:00,65.2,34.0,30.13,NW,314,3.0,6.0,32,0.00,,,0.00,weatherlink.com 1.10,2013-02-11 23:16:00,
2013-02-11 15:31:00,64.8,35.0,30.13,West,269,1.0,5.0,33,0.00,,,0.00,weatherlink.com 1.10,2013-02-11 23:31:00,
2013-02-11 15:46:00,64.0,33.0,30.13,WNW,296,3.0,8.0,32,0.00,,,0.00,weatherlink.com 1.10,2013-02-11 23:46:00,
2013-02-11 16:01:00,63.6,34.0,30.13,WNW,295,2.0,5.0,33,0.00,,,0.00,weatherlink.com 1.10,2013-02-12 00:01:00,
2013-02-11 16:16:00,63.9,36.0,30.13,West,270,2.0,4.0,35,0.00,,,0.00,weatherlink.com 1.10,2013-02-12 00:16:00,
2013-02-11 16:31:00,63.2,36.0,30.14,NNW,343,0.0,4.0,36,0.00,,,0.00,weatherlink.com 1.10,2013-02-12 00:31:00,
2013-02-11 16:46:00,62.6,36.0,30.14,SW,222,2.0,4.0,38,0.00,,,0.00,weatherlink.com 1.10,2013-02-12 00:46:00,
2013-02-11 17:01:00,61.1,38.0,30.14,SW,231,0.0,2.0,42,0.00,,,0.00,weatherlink.com 1.10,2013-02-12 01:01:00,
2013-02-11 17:16:00,59.6,37.0,30.14,SW,231,0.0,1.0,43,0.00,,,0.00,weatherlink.com 1.10,2013-02-12 01:16:00,
2013-02-11 17:31:00,58.1,38.0,30.15,SW,231,0.0,1.0,47,0.00,,,0.00,weatherlink.com 1.10,2013-02-12 01:31:00,
2013-02-11 17:46:00,55.9,38.0,30.15,SW,231,0.0,0.0,51,0.00,,,0.00,weatherlink.com 1.10,2013-02-12 01:46:00,
2013-02-11 18:01:00,53.1,38.0,30.15,SW,231,0.0,1.0,58,0.00,,,0.00,weatherlink.com 1.10,2013-02-12 02:01:00,
2013-02-11 18:16:00,51.5,39.0,30.16,SSW,208,1.0,2.0,62,0.00,,,0.00,weatherlink.com 1.10,2013-02-12 02:16:00,
2013-02-11 18:31:00,49.8,38.0,30.16,SSW,207,0.0,1.0,65,0.00,,,0.00,weatherlink.com 1.10,2013-02-12 02:31:00,
2013-02-11 18:46:00,47.7,39.0,30.17,SSW,207,0.0,0.0,71,0.00,,,0.00,weatherlink.com 1.10,2013-02-12 02:46:00,
2013-02-11 19:01:00,45.8,38.0,30.17,SSW,207,0.0,0.0,73,0.00,,,0.00,weatherlink.com 1.10,2013-02-12 03:01:00,
2013-02-11 19:16:00,44.1,37.0,30.17,SSW,207,0.0,0.0,76,0.00,,,0.00,weatherlink.com 1.10,2013-02-12 03:16:00,
2013-02-11 19:31:00,42.9,37.0,30.18,SSW,207,0.0,0.0,80,0.00,,,0.00,weatherlink.com 1.10,2013-02-12 03:31:00,
2013-02-11 19:46:00,41.8,36.0,30.18,SSW,207,0.0,0.0,81,0.00,,,0.00,weatherlink.com 1.10,2013-02-12 03:46:00,
2013-02-11 20:01:00,41.5,36.0,30.18,SSW,207,0.0,0.0,82,0.00,,,0.00,weatherlink.com 1.10,2013-02-12 04:01:00,
2013-02-11 20:16:00,40.4,36.0,30.19,SSW,207,0.0,0.0,83,0.00,,,0.00,weatherlink.com 1.10,2013-02-12 04:16:00,
2013-02-11 20:31:00,39.4,35.0,30.19,SSW,207,0.0,0.0,85,0.00,,,0.00,weatherlink.com 1.10,2013-02-12 04:31:00,
2013-02-11 20:46:00,39.0,35.0,30.19,SSW,207,0.0,0.0,86,0.00,,,0.00,weatherlink.com 1.10,2013-02-12 04:46:00,
2013-02-11 21:01:00,38.5,35.0,30.20,SSW,207,0.0,1.0,88,0.00,,,0.00,weatherlink.com 1.10,2013-02-12 05:01:00,
2013-02-11 21:16:00,38.6,35.0,30.20,SSW,207,0.0,1.0,88,0.00,,,0.00,weatherlink.com 1.10,2013-02-12 05:16:00,
2013-02-11 21:31:00,37.8,35.0,30.20,SSW,207,0.0,0.0,88,0.00,,,0.00,weatherlink.com 1.10,2013-02-12 05:31:00,
2013-02-11 21:46:00,36.9,34.0,30.21,SSW,207,0.0,0.0,88,0.00,,,0.00,weatherlink.com 1.10,2013-02-12 05:46:00,
2013-02-11 22:01:00,36.1,33.0,30.21,SSW,207,0.0,1.0,88,0.00,,,0.00,weatherlink.com 1.10,2013-02-12 06:01:00,
2013-02-11 22:16:00,35.9,33.0,30.21,SSW,207,0.0,0.0,90,0.00,,,0.00,weatherlink.com 1.10,2013-02-12 06:16:00,
2013-02-11 22:31:00,35.7,33.0,30.21,SSW,207,0.0,1.0,90,0.00,,,0.00,weatherlink.com 1.10,2013-02-12 06:31:00,
2013-02-11 22:46:00,35.3,33.0,30.21,SSW,207,0.0,0.0,90,0.00,,,0.00,weatherlink.com 1.10,2013-02-12 06:46:00,
2013-02-11 23:01:00,34.7,32.0,30.22,SSW,207,0.0,0.0,90,0.00,,,0.00,weatherlink.com 1.10,2013-02-12 07:01:00,
2013-02-11 23:17:00,34.4,32.0,30.22,SSW,207,1.0,1.0,91,0.00,,,0.00,weatherlink.com 1.10,2013-02-12 07:17:00,
2013-02-11 23:32:00,34.0,32.0,30.23,SSW,207,0.0,1.0,91,0.00,,,0.00,weatherlink.com 1.10,2013-02-12 07:32:00,
2013-02-11 23:47:00,33.9,32.0,30.23,SSW,207,0.0,1.0,91,0.00,,,0.00,weatherlink.com 1.10,2013-02-12 07:47:00,